UKOH/KHE METAR and TAF weather

Enter ICAO airport designator
Station Type Date Time Source
UKOH METAR 2021/07/26 16:30 UTC NOAA

UKOH 261630Z 00000MPS CAVOK 31/13 Q1017 R03/CLRD// NOSIG


Station Type Date Time Source
UKOH Decoded METAR 2021/07/26 16:30 UTC NOAA

Station name not available
Jul 26, 2021 - 12:30 PM EDT / 2021.07.26 1630 UTC
Wind: Calm:0
Visibility: greater than 7 mile(s):0
Temperature: 87 F (31 C)
Dew Point: 55 F (13 C)
Relative Humidity: 33%
Pressure (altimeter): 30.03 in. Hg (1017 hPa)
ob: UKOH 261630Z 00000MPS CAVOK 31/13 Q1017 R03/CLRD// NOSIG
cycle: 16

Station Type Date Time Source
UKOH TAF UTC NOAA

Error!

Example: see airport list